Time;durP1;ratioP1;P1;durP2;ratioP2;P2;SDS_P1;SDS_P2;PMS_P1;PMS_P2;Temp;Humidity;BMP_temperature;BMP_pressure;BME280_temperature;BME280_humidity;BME280_pressure;Samples;Min_cycle;Max_cycle;Signal;HPM_P1;HPM_P2
2021/11/30 00:00:57;;;;;;;2.22;1.70;;;1.70;99.90;;;;;;5051417;28;20021;-64
2021/11/30 00:03:23;;;;;;;2.03;1.83;;;1.60;99.90;;;;;;5050458;28;20025;-64
2021/11/30 00:05:49;;;;;;;2.00;1.65;;;1.40;99.90;;;;;;5050563;28;20112;-64
2021/11/30 00:08:16;;;;;;;3.17;1.75;;;1.90;99.90;;;;;;5056811;28;20061;-64
2021/11/30 00:10:46;;;;;;;1.70;1.60;;;1.10;99.90;;;;;;5038144;28;20403;-64
2021/11/30 00:13:17;;;;;;;2.55;2.03;;;1.70;99.90;;;;;;5051071;28;20501;-63
2021/11/30 00:15:44;;;;;;;2.00;1.88;;;1.90;99.90;;;;;;5047329;28;20032;-63
2021/11/30 00:18:10;;;;;;;1.95;1.83;;;1.60;99.90;;;;;;5047460;28;20038;-62
2021/11/30 00:20:37;;;;;;;2.25;2.05;;;1.70;99.90;;;;;;5055347;28;20037;-63
2021/11/30 00:23:03;;;;;;;1.83;1.70;;;1.20;99.90;;;;;;5054582;28;20057;-64
2021/11/30 00:25:29;;;;;;;2.80;1.92;;;2.20;99.90;;;;;;5055801;28;20040;-63
2021/11/30 00:27:55;;;;;;;2.33;2.13;;;1.50;99.90;;;;;;5055757;28;20107;-62
2021/11/30 00:30:22;;;;;;;2.45;1.90;;;1.60;99.90;;;;;;5050961;28;20503;-63
2021/11/30 00:32:48;;;;;;;2.03;1.92;;;2.00;99.90;;;;;;5036803;28;20475;-63
2021/11/30 00:35:14;;;;;;;2.10;1.90;;;1.70;99.90;;;;;;5053895;28;20111;-65
2021/11/30 00:37:40;;;;;;;2.00;1.90;;;2.10;99.90;;;;;;5053849;28;20498;-62
2021/11/30 00:40:06;;;;;;;2.17;2.00;;;2.10;99.90;;;;;;5054662;28;20123;-62
2021/11/30 00:42:32;;;;;;;2.05;1.85;;;1.70;99.90;;;;;;5052941;28;20029;-62
2021/11/30 00:45:01;;;;;;;1.80;1.70;;;1.50;99.90;;;;;;5051486;28;20380;-63
2021/11/30 00:47:29;;;;;;;1.80;1.70;;;1.90;99.90;;;;;;5053882;28;20358;-62
2021/11/30 00:49:57;;;;;;;2.20;2.00;;;2.40;99.90;;;;;;5053060;28;20144;-63
2021/11/30 00:52:23;;;;;;;2.15;1.95;;;1.80;99.90;;;;;;5054373;28;20108;-64
2021/11/30 00:54:49;;;;;;;2.33;1.75;;;2.30;99.90;;;;;;5053769;28;20056;-64
2021/11/30 00:57:16;;;;;;;2.20;2.00;;;1.90;99.90;;;;;;5053575;28;20029;-64
2021/11/30 00:59:42;;;;;;;2.30;2.10;;;1.30;99.90;;;;;;5054272;28;20035;-63
2021/11/30 01:02:08;;;;;;;2.30;2.10;;;2.20;99.90;;;;;;5053666;28;20502;-63
2021/11/30 01:04:34;;;;;;;5.32;2.17;;;3.00;99.90;;;;;;5053255;28;20044;-63
2021/11/30 01:07:00;;;;;;;2.25;2.00;;;2.40;99.90;;;;;;5053777;28;20037;-63
2021/11/30 01:09:26;;;;;;;2.33;2.10;;;2.10;99.90;;;;;;5041313;28;20030;-64
2021/11/30 01:11:52;;;;;;;2.25;2.13;;;2.40;99.90;;;;;;5053958;28;20031;-64
2021/11/30 01:14:19;;;;;;;2.45;2.00;;;;;;;;;;5053613;28;20046;-63
2021/11/30 01:16:45;;;;;;;3.22;1.95;;;1.90;99.90;;;;;;5052867;28;20021;-63
2021/11/30 01:19:10;;;;;;;2.53;2.25;;;2.00;99.90;;;;;;5053757;28;20115;-63
2021/11/30 01:21:37;;;;;;;3.08;2.13;;;1.90;99.90;;;;;;5054000;28;20444;-62
2021/11/30 01:24:04;;;;;;;2.45;2.25;;;1.70;99.90;;;;;;5049804;28;20033;-63
2021/11/30 01:26:30;;;;;;;2.40;2.20;;;1.70;99.90;;;;;;5053498;28;20033;-63
2021/11/30 01:28:56;;;;;;;2.60;2.40;;;2.50;99.90;;;;;;5053061;28;20025;-63
2021/11/30 01:31:21;;;;;;;2.35;2.00;;;2.50;99.90;;;;;;5052946;28;20025;-63
2021/11/30 01:33:47;;;;;;;3.72;2.65;;;2.00;99.90;;;;;;5053506;28;20074;-63
2021/11/30 01:36:13;;;;;;;2.83;2.58;;;1.50;99.90;;;;;;5051782;28;20021;-64
2021/11/30 01:38:39;;;;;;;3.15;2.47;;;2.10;99.90;;;;;;5053799;28;20033;-63
2021/11/30 01:41:06;;;;;;;2.55;1.95;;;1.70;99.90;;;;;;5054170;28;20021;-63
2021/11/30 01:43:39;;;;;;;2.80;2.50;;;2.60;99.90;;;;;;5052817;28;20052;-64
2021/11/30 01:46:12;;;;;;;3.80;2.70;;;2.20;99.90;;;;;;5052319;28;20085;-63
2021/11/30 01:51:23;;;;;;;2.80;2.60;;;2.30;99.90;;;;;;5084553;22;19936;-69
2021/11/30 01:53:50;;;;;;;4.40;2.22;;;2.40;99.90;;;;;;5057124;28;20060;-69
2021/11/30 01:56:16;;;;;;;2.60;2.40;;;1.30;99.90;;;;;;5060763;28;20020;-69
2021/11/30 01:58:44;;;;;;;3.53;3.00;;;2.70;99.90;;;;;;5072914;28;20571;-68
2021/11/30 02:01:09;;;;;;;2.83;2.63;;;2.70;99.90;;;;;;5073419;28;20027;-69
2021/11/30 02:03:35;;;;;;;3.85;2.67;;;2.20;99.90;;;;;;5069338;28;20028;-67
2021/11/30 02:06:01;;;;;;;4.40;2.88;;;1.50;99.90;;;;;;5054683;28;20531;-68
2021/11/30 02:08:27;;;;;;;2.63;2.40;;;2.70;99.90;;;;;;5073173;28;20028;-68
2021/11/30 02:10:56;;;;;;;5.20;2.60;;;1.50;99.90;;;;;;5072854;28;20165;-69
2021/11/30 02:13:22;;;;;;;3.22;2.97;;;2.50;99.90;;;;;;5073098;28;20085;-69
2021/11/30 02:15:52;;;;;;;3.28;2.92;;;1.60;99.90;;;;;;5069504;28;20517;-70
2021/11/30 02:18:23;;;;;;;4.55;2.90;;;2.40;99.90;;;;;;5072940;28;20032;-69
2021/11/30 02:20:57;;;;;;;2.80;2.60;;;2.40;99.90;;;;;;5066730;28;20103;-68
2021/11/30 02:26:14;;;;;;;6.18;3.10;;;2.10;99.90;;;;;;5073096;28;20054;-70
2021/11/30 02:28:44;;;;;;;3.22;2.92;;;2.20;99.90;;;;;;5068353;28;20025;-70
2021/11/30 02:31:11;;;;;;;3.85;2.97;;;2.40;99.90;;;;;;5073754;28;20025;-67
2021/11/30 02:33:38;;;;;;;5.38;2.88;;;2.60;99.90;;;;;;5073275;28;20055;-68
2021/11/30 02:36:27;;;;;;;5.03;3.10;;;2.20;99.90;;;;;;5070912;28;20024;-67
2021/11/30 02:38:56;;;;;;;3.92;2.75;;;2.30;99.90;;;;;;5072982;28;20386;-68
2021/11/30 02:41:23;;;;;;;3.15;2.72;;;2.60;99.90;;;;;;5072470;28;20435;-69
2021/11/30 02:43:50;;;;;;;8.60;3.08;;;2.60;99.90;;;;;;5068063;28;20051;-69
2021/11/30 02:46:29;;;;;;;8.82;3.40;;;2.30;99.90;;;;;;5071906;28;20041;-69
2021/11/30 02:48:55;;;;;;;7.15;3.67;;;2.70;99.90;;;;;;5071895;28;20063;-69
2021/11/30 02:51:21;;;;;;;4.05;3.40;;;2.40;99.90;;;;;;5072485;28;20064;-69
2021/11/30 02:53:47;;;;;;;3.10;2.80;;;2.30;99.90;;;;;;5073142;28;20020;-68
2021/11/30 02:56:12;;;;;;;7.05;2.85;;;1.90;99.90;;;;;;5060277;28;20032;-67
2021/11/30 02:58:38;;;;;;;5.25;3.17;;;2.50;99.90;;;;;;5071448;28;20103;-68
2021/11/30 03:01:06;;;;;;;6.32;3.65;;;2.20;99.90;;;;;;5072028;28;20024;-67
2021/11/30 03:03:32;;;;;;;5.85;3.40;;;1.90;99.90;;;;;;5068166;28;20048;-68
2021/11/30 03:05:58;;;;;;;3.65;2.80;;;2.10;99.90;;;;;;5054004;28;20052;-69
2021/11/30 03:08:24;;;;;;;4.78;3.05;;;;;;;;;;5071587;28;20024;-70
2021/11/30 03:10:52;;;;;;;6.57;2.90;;;;;;;;;;5072618;28;20031;-69
2021/11/30 03:13:17;;;;;;;7.70;2.83;;;1.90;99.90;;;;;;5072251;28;20536;-70
2021/11/30 03:15:43;;;;;;;6.53;3.40;;;2.50;99.90;;;;;;5067097;28;20036;-69
2021/11/30 03:18:09;;;;;;;8.40;3.42;;;2.20;99.90;;;;;;5079407;28;20021;-68
2021/11/30 03:20:35;;;;;;;4.20;2.70;;;2.00;99.90;;;;;;5084128;28;20531;-68
2021/11/30 03:23:01;;;;;;;3.13;2.70;;;1.90;99.90;;;;;;5071909;28;20138;-68
2021/11/30 03:25:27;;;;;;;4.50;3.40;;;2.60;99.90;;;;;;5071633;28;20024;-68
2021/11/30 03:27:52;;;;;;;6.80;3.13;;;1.80;99.90;;;;;;5071454;28;20192;-69
2021/11/30 03:30:22;;;;;;;4.82;3.22;;;1.80;99.90;;;;;;5067420;28;20103;-68
2021/11/30 03:35:32;;;;;;;5.38;2.80;;;1.60;99.90;;;;;;5070270;28;20118;-69
2021/11/30 03:37:58;;;;;;;3.50;3.00;;;1.60;99.90;;;;;;5071905;28;20052;-70
2021/11/30 03:40:24;;;;;;;4.95;3.20;;;1.80;99.90;;;;;;5071691;28;20398;-69
2021/11/30 03:42:50;;;;;;;4.57;2.90;;;2.20;99.90;;;;;;5067348;28;20158;-69
2021/11/30 03:45:16;;;;;;;4.85;2.50;;;2.40;99.90;;;;;;5071160;28;20028;-68
2021/11/30 03:47:42;;;;;;;7.72;2.58;;;2.50;99.90;;;;;;5071636;28;20474;-70
2021/11/30 03:50:09;;;;;;;4.82;2.40;;;2.20;99.90;;;;;;5070655;28;20028;-69
2021/11/30 03:52:36;;;;;;;3.65;2.45;;;2.30;99.90;;;;;;5071873;28;20044;-69
2021/11/30 03:55:03;;;;;;;3.72;2.88;;;2.60;99.90;;;;;;5074325;28;20048;-69
2021/11/30 03:57:29;;;;;;;4.90;2.67;;;2.70;99.90;;;;;;5084538;28;20742;-69
2021/11/30 03:59:54;;;;;;;3.30;2.45;;;2.10;99.90;;;;;;5085256;28;20038;-68
2021/11/30 04:02:20;;;;;;;3.72;2.10;;;2.90;99.90;;;;;;5081203;28;20039;-70
2021/11/30 04:04:46;;;;;;;6.07;2.20;;;2.20;99.90;;;;;;5080408;28;20146;-70
2021/11/30 04:07:14;;;;;;;6.93;2.45;;;2.20;99.90;;;;;;5079149;28;20021;-69
2021/11/30 04:09:39;;;;;;;5.40;2.55;;;2.50;99.90;;;;;;5074386;28;20033;-68
2021/11/30 04:12:07;;;;;;;10.55;2.90;;;2.40;99.90;;;;;;5079789;28;20407;-68
2021/11/30 04:14:34;;;;;;;2.45;1.90;;;;;;;;;;5076648;28;20021;-69
2021/11/30 04:17:00;;;;;;;6.55;2.55;;;2.20;99.90;;;;;;5078011;28;20528;-70
2021/11/30 04:19:26;;;;;;;4.60;2.67;;;;;;;;;;5075927;28;20036;-70
2021/11/30 04:21:51;;;;;;;5.50;2.33;;;2.80;99.90;;;;;;5072632;28;20101;-72
2021/11/30 04:24:18;;;;;;;5.28;2.55;;;2.30;99.90;;;;;;5064908;28;20060;-74
2021/11/30 04:26:44;;;;;;;11.95;2.55;;;;;;;;;;5077255;28;20127;-73
2021/11/30 04:29:10;;;;;;;4.38;2.13;;;;;;;;;;5067474;28;20044;-74
2021/11/30 04:31:35;;;;;;;3.75;2.08;;;2.40;99.90;;;;;;5057805;28;20021;-73
2021/11/30 04:34:03;;;;;;;3.80;2.28;;;1.80;99.90;;;;;;5060755;28;20020;-72
2021/11/30 04:36:29;;;;;;;4.03;2.45;;;2.60;99.90;;;;;;5077152;28;20062;-73
2021/11/30 04:38:56;;;;;;;4.97;2.20;;;2.50;99.90;;;;;;5078023;28;20028;-72
2021/11/30 04:41:22;;;;;;;2.88;2.33;;;2.10;99.90;;;;;;5067776;28;20070;-74
2021/11/30 04:43:49;;;;;;;3.78;2.25;;;2.70;99.90;;;;;;5057544;28;20040;-72
2021/11/30 04:47:05;;;;;;;4.80;2.17;;;1.50;99.90;;;;;;5057885;28;20316;-73
2021/11/30 04:49:14;;;;;;;4.00;1.77;;;2.20;99.90;;;;;;5044689;28;20033;-74
2021/11/30 04:51:40;;;;;;;5.20;2.30;;;2.90;99.90;;;;;;5068355;28;20044;-72
2021/11/30 04:54:06;;;;;;;8.30;2.90;;;2.20;99.90;;;;;;5066637;28;20402;-74
2021/11/30 04:56:31;;;;;;;4.45;2.42;;;1.70;99.90;;;;;;5064024;28;20020;-73
2021/11/30 04:58:57;;;;;;;3.53;2.30;;;2.20;99.90;;;;;;5077235;28;20403;-73
2021/11/30 05:01:23;;;;;;;3.08;2.35;;;1.90;99.90;;;;;;5077808;28;20024;-73
2021/11/30 05:03:49;;;;;;;4.90;2.30;;;2.20;99.90;;;;;;5077833;28;20028;-75
2021/11/30 05:06:15;;;;;;;2.95;2.08;;;2.20;99.90;;;;;;5072330;28;20051;-73
2021/11/30 05:08:41;;;;;;;5.70;2.40;;;2.40;99.90;;;;;;5071084;28;20024;-78
2021/11/30 05:11:07;;;;;;;2.15;1.85;;;2.50;99.90;;;;;;5059630;28;20013;-78
2021/11/30 05:13:33;;;;;;;4.20;2.10;;;;;;;;;;5063123;28;20489;-79
2021/11/30 05:15:59;;;;;;;4.57;1.83;;;2.10;99.90;;;;;;5062395;28;20097;-77
2021/11/30 05:18:25;;;;;;;3.75;1.83;;;;;;;;;;5063931;28;20024;-76
2021/11/30 05:20:53;;;;;;;2.20;2.00;;;2.20;99.90;;;;;;5067539;28;20094;-75
2021/11/30 05:23:27;;;;;;;4.82;1.90;;;2.40;99.90;;;;;;5071314;28;20562;-75
2021/11/30 05:25:54;;;;;;;4.57;2.15;;;1.90;99.90;;;;;;5053750;28;20394;-75
2021/11/30 05:28:22;;;;;;;3.67;1.80;;;2.90;99.90;;;;;;5054726;28;20028;-76
2021/11/30 05:30:48;;;;;;;1.98;1.83;;;;;;;;;;5066646;28;20033;-77
2021/11/30 05:33:13;;;;;;;2.45;2.00;;;2.60;99.90;;;;;;5073972;28;20046;-77
2021/11/30 05:35:41;;;;;;;9.15;2.10;;;1.90;99.90;;;;;;5063225;28;20371;-76
2021/11/30 05:38:07;;;;;;;3.10;1.98;;;2.20;99.90;;;;;;5063569;28;20035;-75
2021/11/30 05:40:32;;;;;;;3.22;2.00;;;1.50;99.90;;;;;;5073059;28;20025;-76
2021/11/30 05:42:59;;;;;;;4.97;2.13;;;2.40;99.90;;;;;;5067198;28;20024;-76
2021/11/30 05:45:25;;;;;;;4.85;1.95;;;3.00;99.90;;;;;;5075715;28;20029;-76
2021/11/30 05:47:51;;;;;;;8.75;2.25;;;2.20;99.90;;;;;;5065301;28;20499;-76
2021/11/30 05:50:17;;;;;;;4.35;1.85;;;2.20;99.90;;;;;;5077514;28;20044;-72
2021/11/30 05:52:43;;;;;;;3.15;2.20;;;2.20;99.90;;;;;;5061743;28;20565;-72
2021/11/30 05:55:10;;;;;;;4.47;3.00;;;2.10;99.90;;;;;;5062361;28;20111;-72
2021/11/30 05:57:38;;;;;;;4.22;1.95;;;2.30;99.90;;;;;;5064423;28;20021;-73
2021/11/30 06:00:06;;;;;;;4.85;2.28;;;2.50;99.90;;;;;;5062917;28;20782;-72
2021/11/30 06:02:39;;;;;;;5.82;2.00;;;2.70;99.90;;;;;;5063252;28;20036;-73
2021/11/30 06:05:05;;;;;;;3.67;2.30;;;2.40;99.90;;;;;;5092868;28;20020;-72
2021/11/30 06:07:31;;;;;;;5.45;2.10;;;2.60;99.90;;;;;;5090653;28;20111;-71
2021/11/30 06:09:57;;;;;;;2.53;2.30;;;2.20;99.90;;;;;;5072360;28;20202;-71
2021/11/30 06:12:22;;;;;;;3.53;2.15;;;3.20;99.90;;;;;;5073172;28;20533;-72
2021/11/30 06:14:48;;;;;;;2.20;2.00;;;2.60;99.90;;;;;;5067741;28;20028;-72
2021/11/30 06:17:14;;;;;;;3.30;2.13;;;3.00;99.90;;;;;;5072990;28;20024;-72
2021/11/30 06:19:40;;;;;;;7.35;2.30;;;2.40;99.90;;;;;;5073046;28;20033;-73
2021/11/30 06:22:07;;;;;;;9.23;2.53;;;1.90;99.90;;;;;;5072050;28;20055;-72
2021/11/30 06:24:33;;;;;;;5.05;2.55;;;2.30;99.90;;;;;;5071941;28;20371;-72
2021/11/30 06:26:59;;;;;;;4.32;2.58;;;;;;;;;;5072017;28;20031;-73
2021/11/30 06:29:25;;;;;;;8.13;2.80;;;2.30;99.90;;;;;;5068623;28;20032;-73
2021/11/30 06:31:51;;;;;;;4.43;2.45;;;2.50;99.90;;;;;;5072564;28;20493;-72
2021/11/30 06:34:16;;;;;;;4.63;2.58;;;2.10;99.90;;;;;;5071277;28;20075;-74
2021/11/30 06:36:42;;;;;;;6.78;3.03;;;2.90;99.90;;;;;;5056477;28;20489;-71
2021/11/30 06:39:08;;;;;;;4.05;2.70;;;2.80;99.90;;;;;;5068934;28;20024;-74
2021/11/30 06:41:34;;;;;;;6.75;2.60;;;2.30;99.90;;;;;;5062680;28;20025;-73
2021/11/30 06:44:00;;;;;;;3.25;2.33;;;2.50;99.90;;;;;;5052204;28;20060;-73
2021/11/30 06:46:26;;;;;;;4.70;2.83;;;2.10;99.90;;;;;;5055856;28;20364;-73
2021/11/30 06:48:52;;;;;;;5.10;2.30;;;2.80;99.90;;;;;;5071178;28;20513;-73
2021/11/30 06:51:18;;;;;;;3.75;2.53;;;2.60;99.90;;;;;;5072011;28;20056;-72
2021/11/30 06:53:44;;;;;;;3.85;2.38;;;2.30;99.90;;;;;;5071268;28;20028;-70
2021/11/30 06:56:10;;;;;;;7.72;2.95;;;2.20;99.90;;;;;;5056896;28;20032;-71
2021/11/30 06:58:36;;;;;;;5.22;2.55;;;;;;;;;;5051874;28;20021;-71
2021/11/30 07:01:03;;;;;;;4.53;3.00;;;3.00;99.90;;;;;;5061113;28;20085;-72
2021/11/30 07:03:29;;;;;;;3.40;2.90;;;2.10;99.90;;;;;;5056893;28;20035;-67
2021/11/30 07:06:17;;;;;;;4.10;2.65;;;2.60;99.90;;;;;;5051349;28;20025;-67
2021/11/30 07:13:52;;;;;;;4.40;3.20;;;2.70;99.90;;;;;;5071162;28;20013;-67
2021/11/30 07:16:18;;;;;;;5.75;2.80;;;2.50;99.90;;;;;;5070705;28;20063;-68
2021/11/30 07:18:44;;;;;;;6.28;2.70;;;2.10;99.90;;;;;;5071844;28;20514;-67
2021/11/30 07:21:10;;;;;;;3.53;2.40;;;2.30;99.90;;;;;;5067330;28;20020;-68
2021/11/30 07:23:36;;;;;;;3.05;2.70;;;2.50;99.90;;;;;;5053618;28;20448;-68
2021/11/30 07:26:02;;;;;;;8.63;3.22;;;2.10;99.90;;;;;;5068542;28;20486;-69
2021/11/30 07:28:31;;;;;;;4.10;3.40;;;2.50;99.90;;;;;;5070860;28;20477;-68
2021/11/30 07:31:15;;;;;;;7.43;3.05;;;2.30;99.90;;;;;;5070873;28;20024;-68
2021/11/30 07:33:44;;;;;;;3.30;3.00;;;3.00;99.90;;;;;;5067879;28;20113;-68
2021/11/30 07:36:12;;;;;;;4.63;3.85;;;2.40;99.90;;;;;;5071530;28;20036;-68
2021/11/30 07:38:41;;;;;;;6.75;5.63;;;2.00;99.90;;;;;;5071657;28;20032;-68
2021/11/30 07:41:07;;;;;;;2.83;2.25;;;2.30;99.90;;;;;;5070948;28;20021;-68
2021/11/30 07:43:34;;;;;;;7.90;2.40;;;2.90;99.90;;;;;;5072301;28;20656;-67
2021/11/30 07:46:00;;;;;;;5.47;3.13;;;3.30;99.90;;;;;;5067039;28;20042;-68
2021/11/30 07:48:27;;;;;;;4.75;3.08;;;2.10;99.90;;;;;;5071770;28;20124;-67
2021/11/30 07:50:54;;;;;;;2.63;2.35;;;2.30;99.90;;;;;;5072356;28;20483;-68
2021/11/30 07:53:20;;;;;;;4.35;2.38;;;3.20;99.90;;;;;;5072064;28;20021;-69
2021/11/30 07:55:46;;;;;;;2.70;2.50;;;2.40;99.90;;;;;;5053074;28;20375;-69
2021/11/30 07:58:12;;;;;;;4.82;3.00;;;2.50;99.90;;;;;;5071059;28;20103;-67
2021/11/30 08:00:38;;;;;;;8.77;3.05;;;2.40;99.90;;;;;;5072802;28;20040;-69
2021/11/30 08:03:04;;;;;;;3.03;2.30;;;2.40;99.90;;;;;;5092812;28;20100;-68
2021/11/30 08:05:30;;;;;;;4.03;2.20;;;2.50;99.90;;;;;;5092176;28;20048;-68
2021/11/30 08:07:55;;;;;;;3.50;2.25;;;2.50;99.90;;;;;;5091417;28;20051;-67
2021/11/30 08:10:25;;;;;;;4.18;2.90;;;2.50;99.90;;;;;;5092511;28;20029;-68
2021/11/30 08:12:50;;;;;;;3.55;2.45;;;2.10;99.90;;;;;;5079649;28;20028;-69
2021/11/30 08:15:17;;;;;;;4.68;3.05;;;2.30;99.90;;;;;;5071668;28;20023;-66
2021/11/30 08:17:43;;;;;;;5.57;4.95;;;2.40;99.90;;;;;;5086040;28;20005;-69
2021/11/30 08:20:09;;;;;;;3.55;2.38;;;2.60;99.90;;;;;;5090921;28;20064;-69
2021/11/30 08:22:36;;;;;;;6.88;3.60;;;2.40;99.90;;;;;;5070539;28;20028;-68
2021/11/30 08:25:04;;;;;;;4.97;2.60;;;2.40;99.90;;;;;;5092269;28;20068;-68
2021/11/30 08:27:30;;;;;;;4.68;2.78;;;2.90;99.90;;;;;;5092989;28;20036;-68
2021/11/30 08:29:56;;;;;;;3.60;2.40;;;2.50;99.90;;;;;;5063019;28;20466;-67
2021/11/30 08:32:23;;;;;;;6.22;2.60;;;2.50;99.90;;;;;;5067966;28;20059;-67
2021/11/30 08:34:53;;;;;;;2.80;2.45;;;2.80;99.90;;;;;;5070620;28;20021;-69
2021/11/30 08:37:20;;;;;;;13.32;2.20;;;2.80;99.90;;;;;;5069824;28;20025;-68
2021/11/30 08:39:49;;;;;;;2.78;2.22;;;3.00;99.90;;;;;;5070248;28;20050;-67
2021/11/30 08:42:16;;;;;;;3.20;2.10;;;2.80;99.90;;;;;;5074856;28;20024;-69
2021/11/30 08:44:43;;;;;;;2.85;2.10;;;2.70;99.90;;;;;;5069557;28;20105;-69
2021/11/30 08:47:11;;;;;;;5.57;2.55;;;2.90;99.90;;;;;;5074223;28;20040;-69
2021/11/30 08:49:37;;;;;;;2.50;2.05;;;2.80;99.90;;;;;;5073551;28;20032;-68
2021/11/30 08:52:05;;;;;;;3.65;2.63;;;2.70;99.90;;;;;;5074332;28;20091;-69
2021/11/30 08:54:31;;;;;;;4.32;2.15;;;2.90;99.90;;;;;;5073636;28;20045;-69
2021/11/30 08:56:59;;;;;;;5.15;2.10;;;2.60;99.90;;;;;;5070386;28;20067;-69
2021/11/30 08:59:26;;;;;;;4.65;2.33;;;2.90;99.90;;;;;;5074458;28;20056;-70
2021/11/30 09:01:52;;;;;;;5.03;2.75;;;2.90;99.90;;;;;;5073319;28;20541;-68
2021/11/30 09:04:18;;;;;;;6.60;2.55;;;2.90;99.90;;;;;;5074357;28;20033;-72
2021/11/30 09:06:44;;;;;;;3.90;2.50;;;3.20;99.90;;;;;;5079036;28;20099;-68
2021/11/30 09:09:11;;;;;;;5.47;3.13;;;2.80;99.90;;;;;;5070077;28;20036;-68
2021/11/30 09:11:38;;;;;;;5.38;2.08;;;2.80;99.90;;;;;;5099863;22;20091;-65
2021/11/30 09:14:05;;;;;;;6.93;4.60;;;3.70;99.90;;;;;;5083436;28;20070;-65
2021/11/30 09:16:31;;;;;;;3.97;2.08;;;2.90;99.90;;;;;;5073607;28;20032;-65
2021/11/30 09:18:57;;;;;;;5.55;2.58;;;3.80;99.90;;;;;;5074387;28;20020;-67
2021/11/30 09:21:24;;;;;;;3.75;1.95;;;3.10;99.90;;;;;;5079443;28;20025;-67
2021/11/30 09:23:50;;;;;;;2.92;2.55;;;3.30;99.90;;;;;;5064782;28;20029;-65
2021/11/30 09:26:16;;;;;;;3.67;2.50;;;3.40;99.90;;;;;;5053261;28;20053;-65
2021/11/30 09:28:42;;;;;;;5.18;3.72;;;3.10;99.90;;;;;;5071858;28;20120;-65
2021/11/30 09:31:08;;;;;;;5.10;3.08;;;3.20;99.90;;;;;;5094077;28;20026;-68
2021/11/30 09:33:38;;;;;;;3.03;1.90;;;3.80;99.90;;;;;;5094121;28;20440;-67
2021/11/30 09:36:05;;;;;;;4.93;2.00;;;3.60;99.90;;;;;;5053093;28;20021;-66
2021/11/30 09:38:30;;;;;;;6.70;2.95;;;3.50;99.90;;;;;;5036298;28;20028;-67
2021/11/30 09:40:58;;;;;;;3.25;2.30;;;3.80;99.90;;;;;;5062774;28;20047;-66
2021/11/30 09:43:25;;;;;;;4.97;2.72;;;3.80;99.90;;;;;;5075824;28;20020;-66
2021/11/30 09:45:51;;;;;;;4.82;2.10;;;3.50;99.90;;;;;;5095830;28;20051;-67
2021/11/30 09:48:18;;;;;;;1.08;0.95;;;3.60;99.90;;;;;;5080375;28;20033;-67
2021/11/30 09:50:45;;;;;;;2.75;1.40;;;3.80;99.90;;;;;;5068863;28;20111;-66
2021/11/30 09:53:12;;;;;;;2.92;2.05;;;2.80;99.90;;;;;;5057809;28;20028;-66
2021/11/30 09:55:39;;;;;;;1.98;1.20;;;4.30;99.90;;;;;;5092976;28;20020;-66
2021/11/30 09:58:05;;;;;;;1.63;1.40;;;4.00;99.90;;;;;;5089775;28;20020;-66
2021/11/30 10:00:34;;;;;;;2.95;1.88;;;4.00;99.90;;;;;;5086863;28;20059;-68
2021/11/30 10:03:00;;;;;;;2.15;1.63;;;3.90;99.90;;;;;;5093871;28;20036;-68
2021/11/30 10:05:28;;;;;;;3.45;2.20;;;3.70;99.90;;;;;;5091307;28;20024;-68
2021/11/30 10:07:56;;;;;;;2.20;1.80;;;3.80;99.90;;;;;;5093762;28;20024;-68
2021/11/30 10:10:25;;;;;;;53.50;17.48;;;3.30;99.90;;;;;;5087260;28;20025;-68
2021/11/30 10:13:13;;;;;;;3.40;2.20;;;3.60;99.90;;;;;;5077041;28;20024;-68
2021/11/30 10:15:45;;;;;;;1.63;1.40;;;4.40;99.90;;;;;;5079801;28;20040;-68
2021/11/30 10:18:36;;;;;;;5.63;4.32;;;3.80;99.90;;;;;;5084955;28;20025;-68
2021/11/30 10:21:23;;;;;;;2.00;1.88;;;4.10;99.90;;;;;;5091522;28;20053;-68
2021/11/30 10:24:05;;;;;;;1.63;1.52;;;3.60;99.90;;;;;;5093332;28;20031;-68
2021/11/30 10:26:43;;;;;;;4.30;1.20;;;3.70;99.90;;;;;;5071527;28;20390;-68
2021/11/30 10:29:11;;;;;;;1.33;1.23;;;3.30;99.90;;;;;;5072783;28;20031;-67
2021/11/30 10:31:43;;;;;;;6.25;2.10;;;3.30;99.90;;;;;;5058224;28;20030;-67
2021/11/30 10:34:13;;;;;;;2.13;1.70;;;3.70;99.90;;;;;;5049525;28;20025;-67
2021/11/30 10:36:57;;;;;;;1.60;1.40;;;3.60;99.90;;;;;;5034300;28;20025;-67
2021/11/30 10:39:32;;;;;;;3.78;2.05;;;3.70;99.90;;;;;;5084267;28;20036;-67
2021/11/30 10:42:26;;;;;;;3.95;1.70;;;3.90;99.90;;;;;;5052336;28;20556;-68
2021/11/30 10:44:55;;;;;;;2.78;1.90;;;3.20;99.90;;;;;;5068272;28;20051;-68
2021/11/30 10:47:26;;;;;;;6.00;2.15;;;4.00;99.90;;;;;;5092579;28;20115;-68
2021/11/30 10:49:51;;;;;;;1.53;1.43;;;3.20;99.90;;;;;;5033955;28;20037;-68
2021/11/30 10:52:20;;;;;;;3.47;2.20;;;3.20;99.90;;;;;;5087672;28;20425;-68
2021/11/30 10:54:46;;;;;;;4.15;1.60;;;3.50;99.90;;;;;;5091815;28;20039;-68
2021/11/30 10:57:11;;;;;;;3.00;1.70;;;3.50;99.90;;;;;;5084346;28;20029;-68
2021/11/30 10:59:37;;;;;;;1.15;1.05;;;3.90;99.90;;;;;;5092385;28;20032;-68
2021/11/30 11:02:03;;;;;;;1.42;1.23;;;3.40;99.90;;;;;;5092240;28;20119;-68
2021/11/30 11:04:32;;;;;;;3.47;2.10;;;3.40;99.90;;;;;;5089324;28;20028;-68
2021/11/30 11:07:07;;;;;;;3.22;2.20;;;3.20;99.90;;;;;;5092603;28;20448;-68
2021/11/30 11:09:38;;;;;;;2.75;1.50;;;3.40;99.90;;;;;;5091582;28;20039;-68
2021/11/30 11:12:04;;;;;;;1.53;1.10;;;3.30;99.90;;;;;;5086402;28;20028;-67
2021/11/30 11:14:44;;;;;;;1.38;1.27;;;3.60;99.90;;;;;;5092010;28;20680;-68
2021/11/30 11:17:10;;;;;;;1.55;1.10;;;3.30;99.90;;;;;;5090106;28;20035;-67
2021/11/30 11:19:44;;;;;;;1.50;1.40;;;3.60;99.90;;;;;;5057173;28;20423;-67
2021/11/30 11:22:22;;;;;;;1.10;1.10;;;4.10;99.90;;;;;;5052287;28;20394;-67
2021/11/30 11:24:50;;;;;;;1.27;1.17;;;4.00;99.90;;;;;;5090056;28;20112;-70
2021/11/30 11:27:17;;;;;;;2.08;1.15;;;4.10;99.90;;;;;;5092857;28;20198;-70
2021/11/30 11:29:44;;;;;;;1.63;1.17;;;4.30;99.90;;;;;;5090538;28;20038;-69
2021/11/30 11:32:11;;;;;;;1.90;1.42;;;3.50;99.90;;;;;;5092150;28;20020;-70
2021/11/30 11:34:38;;;;;;;4.05;1.52;;;3.50;99.90;;;;;;5091553;28;20035;-72
2021/11/30 11:37:09;;;;;;;2.85;1.33;;;3.20;99.90;;;;;;5084104;28;20382;-69
2021/11/30 11:39:35;;;;;;;1.63;1.10;;;3.90;99.90;;;;;;5091850;28;20089;-62
2021/11/30 11:42:05;;;;;;;1.60;1.00;;;3.70;99.90;;;;;;5090542;28;20027;-65
2021/11/30 11:44:31;;;;;;;1.80;1.33;;;3.70;99.90;;;;;;5073065;28;20024;-66
2021/11/30 11:47:06;;;;;;;3.35;1.50;;;4.10;99.90;;;;;;5091857;28;20127;-66
2021/11/30 11:49:41;;;;;;;3.47;1.50;;;3.40;99.90;;;;;;5067145;28;20074;-66
2021/11/30 11:52:23;;;;;;;1.92;1.50;;;3.50;99.90;;;;;;5073744;28;20098;-66
2021/11/30 11:55:00;;;;;;;1.30;1.20;;;3.60;99.90;;;;;;5090307;28;20031;-66
2021/11/30 11:57:27;;;;;;;1.98;1.40;;;3.30;99.90;;;;;;5051818;28;20021;-67
2021/11/30 11:59:53;;;;;;;3.13;1.23;;;3.80;99.90;;;;;;5051878;28;20048;-66
2021/11/30 12:02:27;;;;;;;1.08;1.08;;;3.90;99.90;;;;;;5051459;28;20041;-66
2021/11/30 12:05:04;;;;;;;2.10;1.30;;;3.00;99.90;;;;;;5050658;28;20029;-63
2021/11/30 12:07:59;;;;;;;2.75;1.25;;;3.80;99.90;;;;;;5051162;28;20367;-63
2021/11/30 12:10:26;;;;;;;4.05;3.03;;;3.70;99.90;;;;;;5051535;28;20606;-63
2021/11/30 12:12:58;;;;;;;1.42;1.33;;;3.70;99.90;;;;;;5051514;28;20035;-65
2021/11/30 12:15:25;;;;;;;2.95;2.75;;;4.00;99.90;;;;;;5064561;28;20516;-66
2021/11/30 12:17:51;;;;;;;2.38;1.88;;;3.70;99.90;;;;;;5097321;28;20432;-65
2021/11/30 12:20:17;;;;;;;1.48;1.25;;;4.30;99.90;;;;;;5097410;28;20042;-65
2021/11/30 12:22:45;;;;;;;2.67;1.58;;;3.90;99.90;;;;;;5094891;28;20385;-70
2021/11/30 12:25:26;;;;;;;3.08;1.95;;;4.70;99.90;;;;;;5095210;28;20103;-70
2021/11/30 12:27:54;;;;;;;4.47;3.95;;;3.40;99.90;;;;;;5094474;28;20489;-70
2021/11/30 12:30:34;;;;;;;1.40;1.30;;;3.60;99.90;;;;;;5095489;28;20032;-70
2021/11/30 12:33:01;;;;;;;1.40;1.30;;;3.70;99.90;;;;;;5095374;28;20492;-69
2021/11/30 12:35:55;;;;;;;1.35;1.20;;;4.10;99.90;;;;;;5075484;28;20028;-71
2021/11/30 12:38:24;;;;;;;1.92;1.45;;;3.50;99.90;;;;;;5077275;28;20020;-64
2021/11/30 12:40:50;;;;;;;6.22;1.92;;;3.40;99.90;;;;;;5090366;28;20077;-72
2021/11/30 12:43:22;;;;;;;2.13;2.03;;;3.50;99.90;;;;;;5060318;28;20233;-71
2021/11/30 12:46:03;;;;;;;3.97;3.50;;;3.30;99.90;;;;;;5056966;28;20465;-73
2021/11/30 12:48:31;;;;;;;2.33;2.13;;;3.20;99.90;;;;;;5052067;28;20025;-72
2021/11/30 12:51:24;;;;;;;2.55;1.65;;;3.40;99.90;;;;;;5074627;28;20062;-72
2021/11/30 12:53:50;;;;;;;1.90;1.80;;;4.50;99.90;;;;;;5074844;28;20027;-72
2021/11/30 12:56:52;;;;;;;1.30;1.20;;;3.70;99.90;;;;;;5072991;28;20112;-64
2021/11/30 12:59:36;;;;;;;1.77;1.20;;;3.50;99.90;;;;;;5074750;28;20496;-64
2021/11/30 13:02:29;;;;;;;1.80;1.42;;;4.40;99.90;;;;;;5062628;28;20507;-65
2021/11/30 13:05:10;;;;;;;2.80;1.73;;;4.90;99.90;;;;;;5053922;28;20029;-65
2021/11/30 13:07:49;;;;;;;1.38;1.05;;;3.90;99.90;;;;;;5059851;28;20036;-66
2021/11/30 13:10:31;;;;;;;3.47;1.23;;;3.70;99.90;;;;;;5074082;28;20506;-65
2021/11/30 13:13:16;;;;;;;1.83;1.65;;;3.50;99.90;;;;;;5074659;28;20397;-65
2021/11/30 13:15:59;;;;;;;2.40;1.70;;;3.80;99.90;;;;;;5064659;28;20082;-65
2021/11/30 13:18:27;;;;;;;2.35;1.70;;;3.90;99.90;;;;;;5058955;28;20017;-65
2021/11/30 13:20:54;;;;;;;1.83;1.17;;;3.90;99.90;;;;;;5079118;28;20032;-65